sensor_id;sensor_type;location;lat;lon;timestamp;temperature;humidity
13426;DHT22;6785;57.918;12.530;2022-11-20T00:00:48;-0.10;99.90
13426;DHT22;6785;57.918;12.530;2022-11-20T00:03:15;-0.10;99.90
13426;DHT22;6785;57.918;12.530;2022-11-20T00:05:42;-0.20;99.90
13426;DHT22;6785;57.918;12.530;2022-11-20T00:08:09;-0.20;99.90
13426;DHT22;6785;57.918;12.530;2022-11-20T00:10:36;-0.20;99.90
13426;DHT22;6785;57.918;12.530;2022-11-20T00:13:03;-0.20;99.90
13426;DHT22;6785;57.918;12.530;2022-11-20T00:15:30;-0.20;99.90
13426;DHT22;6785;57.918;12.530;2022-11-20T00:17:58;-0.20;99.90
13426;DHT22;6785;57.918;12.530;2022-11-20T00:20:25;-0.20;99.90
13426;DHT22;6785;57.918;12.530;2022-11-20T00:22:52;-0.20;99.90
13426;DHT22;6785;57.918;12.530;2022-11-20T00:25:19;-0.20;99.90
13426;DHT22;6785;57.918;12.530;2022-11-20T00:27:46;-0.20;99.90
13426;DHT22;6785;57.918;12.530;2022-11-20T00:30:13;-0.20;99.90
13426;DHT22;6785;57.918;12.530;2022-11-20T00:32:39;-0.30;99.90
13426;DHT22;6785;57.918;12.530;2022-11-20T00:35:08;-0.30;99.90
13426;DHT22;6785;57.918;12.530;2022-11-20T00:37:35;-0.30;99.90
13426;DHT22;6785;57.918;12.530;2022-11-20T00:40:01;-0.30;99.90
13426;DHT22;6785;57.918;12.530;2022-11-20T00:42:28;-0.40;99.90
13426;DHT22;6785;57.918;12.530;2022-11-20T00:44:58;-0.40;99.90
13426;DHT22;6785;57.918;12.530;2022-11-20T00:47:24;-0.40;99.90
13426;DHT22;6785;57.918;12.530;2022-11-20T00:49:51;-0.50;99.90
13426;DHT22;6785;57.918;12.530;2022-11-20T00:52:19;-0.50;99.90
13426;DHT22;6785;57.918;12.530;2022-11-20T00:54:46;-0.50;99.90
13426;DHT22;6785;57.918;12.530;2022-11-20T00:57:13;-0.50;99.90
13426;DHT22;6785;57.918;12.530;2022-11-20T00:59:40;-0.50;99.90
13426;DHT22;6785;57.918;12.530;2022-11-20T01:02:06;-0.50;99.90
13426;DHT22;6785;57.918;12.530;2022-11-20T01:04:33;-0.50;99.90
13426;DHT22;6785;57.918;12.530;2022-11-20T01:07:00;-0.50;99.90
13426;DHT22;6785;57.918;12.530;2022-11-20T01:09:28;-0.50;99.90
13426;DHT22;6785;57.918;12.530;2022-11-20T01:11:55;-0.50;99.90
13426;DHT22;6785;57.918;12.530;2022-11-20T01:14:22;-0.50;99.90
13426;DHT22;6785;57.918;12.530;2022-11-20T01:16:50;-0.40;99.90
13426;DHT22;6785;57.918;12.530;2022-11-20T01:19:19;-0.50;99.90
13426;DHT22;6785;57.918;12.530;2022-11-20T01:21:49;-0.40;99.90
13426;DHT22;6785;57.918;12.530;2022-11-20T01:24:18;-0.40;99.90
13426;DHT22;6785;57.918;12.530;2022-11-20T01:26:47;-0.40;99.90
13426;DHT22;6785;57.918;12.530;2022-11-20T01:29:17;-0.40;99.90
13426;DHT22;6785;57.918;12.530;2022-11-20T01:31:45;-0.40;99.90
13426;DHT22;6785;57.918;12.530;2022-11-20T01:34:13;-0.40;99.90
13426;DHT22;6785;57.918;12.530;2022-11-20T01:36:41;-0.40;99.90
13426;DHT22;6785;57.918;12.530;2022-11-20T01:39:12;-0.40;99.90
13426;DHT22;6785;57.918;12.530;2022-11-20T01:41:39;-0.40;99.90
13426;DHT22;6785;57.918;12.530;2022-11-20T01:44:45;-0.30;99.90
13426;DHT22;6785;57.918;12.530;2022-11-20T01:47:16;-0.30;99.90
13426;DHT22;6785;57.918;12.530;2022-11-20T01:49:46;-0.30;99.90
13426;DHT22;6785;57.918;12.530;2022-11-20T01:52:17;-0.30;99.90
13426;DHT22;6785;57.918;12.530;2022-11-20T01:54:46;-0.30;99.90
13426;DHT22;6785;57.918;12.530;2022-11-20T01:57:15;-0.30;99.90
13426;DHT22;6785;57.918;12.530;2022-11-20T01:59:49;-0.30;99.90
13426;DHT22;6785;57.918;12.530;2022-11-20T02:02:19;-0.20;99.90
13426;DHT22;6785;57.918;12.530;2022-11-20T02:04:46;-0.20;99.90
13426;DHT22;6785;57.918;12.530;2022-11-20T02:07:13;-0.20;99.90
13426;DHT22;6785;57.918;12.530;2022-11-20T02:09:40;-0.10;99.90
13426;DHT22;6785;57.918;12.530;2022-11-20T02:12:07;-0.10;99.90
13426;DHT22;6785;57.918;12.530;2022-11-20T02:14:56;0.00;99.90
13426;DHT22;6785;57.918;12.530;2022-11-20T02:17:23;0.00;99.90
13426;DHT22;6785;57.918;12.530;2022-11-20T02:19:50;0.00;99.90
13426;DHT22;6785;57.918;12.530;2022-11-20T02:22:22;0.00;99.90
13426;DHT22;6785;57.918;12.530;2022-11-20T02:24:52;0.00;99.90
13426;DHT22;6785;57.918;12.530;2022-11-20T02:27:19;0.00;99.90
13426;DHT22;6785;57.918;12.530;2022-11-20T02:29:50;0.00;99.90
13426;DHT22;6785;57.918;12.530;2022-11-20T02:32:19;0.00;99.90
13426;DHT22;6785;57.918;12.530;2022-11-20T02:34:46;0.00;99.90
13426;DHT22;6785;57.918;12.530;2022-11-20T02:37:14;0.00;99.90
13426;DHT22;6785;57.918;12.530;2022-11-20T02:39:41;0.00;99.90
13426;DHT22;6785;57.918;12.530;2022-11-20T02:42:11;-0.10;99.90
13426;DHT22;6785;57.918;12.530;2022-11-20T02:44:37;-0.10;99.90
13426;DHT22;6785;57.918;12.530;2022-11-20T02:47:04;-0.10;99.90
13426;DHT22;6785;57.918;12.530;2022-11-20T02:49:31;-0.10;99.90
13426;DHT22;6785;57.918;12.530;2022-11-20T02:51:58;-0.10;99.90
13426;DHT22;6785;57.918;12.530;2022-11-20T02:54:26;-0.10;99.90
13426;DHT22;6785;57.918;12.530;2022-11-20T02:56:53;-0.10;99.90
13426;DHT22;6785;57.918;12.530;2022-11-20T02:59:21;-0.10;99.90
13426;DHT22;6785;57.918;12.530;2022-11-20T03:01:48;-0.10;99.90
13426;DHT22;6785;57.918;12.530;2022-11-20T03:04:15;-0.10;99.90
13426;DHT22;6785;57.918;12.530;2022-11-20T03:06:41;-0.10;99.90
13426;DHT22;6785;57.918;12.530;2022-11-20T03:09:08;-0.10;99.90
13426;DHT22;6785;57.918;12.530;2022-11-20T03:11:35;-0.10;99.90
13426;DHT22;6785;57.918;12.530;2022-11-20T03:14:02;-0.20;99.90
13426;DHT22;6785;57.918;12.530;2022-11-20T03:16:31;-0.20;99.90
13426;DHT22;6785;57.918;12.530;2022-11-20T03:18:58;-0.30;99.90
13426;DHT22;6785;57.918;12.530;2022-11-20T03:21:25;-0.30;99.90
13426;DHT22;6785;57.918;12.530;2022-11-20T03:23:53;-0.30;99.90
13426;DHT22;6785;57.918;12.530;2022-11-20T03:26:22;-0.40;99.90
13426;DHT22;6785;57.918;12.530;2022-11-20T03:28:50;-0.40;99.90
13426;DHT22;6785;57.918;12.530;2022-11-20T03:31:18;-0.50;99.90
13426;DHT22;6785;57.918;12.530;2022-11-20T03:33:47;-0.50;99.90
13426;DHT22;6785;57.918;12.530;2022-11-20T03:36:16;-0.50;99.90
13426;DHT22;6785;57.918;12.530;2022-11-20T03:38:43;-0.50;99.90
13426;DHT22;6785;57.918;12.530;2022-11-20T03:41:12;-0.50;99.90
13426;DHT22;6785;57.918;12.530;2022-11-20T03:43:39;-0.50;99.90
13426;DHT22;6785;57.918;12.530;2022-11-20T03:46:07;-0.50;99.90
13426;DHT22;6785;57.918;12.530;2022-11-20T03:48:34;-0.50;99.90
13426;DHT22;6785;57.918;12.530;2022-11-20T03:51:09;-0.60;99.90
13426;DHT22;6785;57.918;12.530;2022-11-20T03:53:36;-0.60;99.90
13426;DHT22;6785;57.918;12.530;2022-11-20T03:56:04;-0.60;99.90
13426;DHT22;6785;57.918;12.530;2022-11-20T03:58:32;-0.60;99.90
13426;DHT22;6785;57.918;12.530;2022-11-20T04:01:04;-0.60;99.90
13426;DHT22;6785;57.918;12.530;2022-11-20T04:03:31;-0.70;99.90
13426;DHT22;6785;57.918;12.530;2022-11-20T04:06:01;-0.70;99.90
13426;DHT22;6785;57.918;12.530;2022-11-20T04:08:30;-0.70;99.90
13426;DHT22;6785;57.918;12.530;2022-11-20T04:10:56;-0.70;99.90
13426;DHT22;6785;57.918;12.530;2022-11-20T04:13:23;-0.70;99.90
13426;DHT22;6785;57.918;12.530;2022-11-20T04:15:50;-0.70;99.90
13426;DHT22;6785;57.918;12.530;2022-11-20T04:18:17;-0.70;99.90
13426;DHT22;6785;57.918;12.530;2022-11-20T04:20:43;-0.80;99.90
13426;DHT22;6785;57.918;12.530;2022-11-20T04:23:10;-0.80;99.90
13426;DHT22;6785;57.918;12.530;2022-11-20T04:25:38;-0.80;99.90
13426;DHT22;6785;57.918;12.530;2022-11-20T04:28:05;-0.90;99.90
13426;DHT22;6785;57.918;12.530;2022-11-20T04:30:32;-0.90;99.90
13426;DHT22;6785;57.918;12.530;2022-11-20T04:32:59;-0.90;99.90
13426;DHT22;6785;57.918;12.530;2022-11-20T04:35:26;-0.90;99.90
13426;DHT22;6785;57.918;12.530;2022-11-20T04:37:52;-0.80;99.90
13426;DHT22;6785;57.918;12.530;2022-11-20T04:40:19;-0.80;99.90
13426;DHT22;6785;57.918;12.530;2022-11-20T04:42:47;-0.70;99.90
13426;DHT22;6785;57.918;12.530;2022-11-20T04:45:14;-0.70;99.90
13426;DHT22;6785;57.918;12.530;2022-11-20T04:47:43;-0.80;99.90
13426;DHT22;6785;57.918;12.530;2022-11-20T04:50:10;-0.80;99.90
13426;DHT22;6785;57.918;12.530;2022-11-20T04:52:37;-0.80;99.90
13426;DHT22;6785;57.918;12.530;2022-11-20T04:55:05;-0.80;99.90
13426;DHT22;6785;57.918;12.530;2022-11-20T04:57:32;-0.90;99.90
13426;DHT22;6785;57.918;12.530;2022-11-20T05:00:00;-0.90;99.90
13426;DHT22;6785;57.918;12.530;2022-11-20T05:02:27;-0.90;99.90
13426;DHT22;6785;57.918;12.530;2022-11-20T05:04:53;-0.90;99.90
13426;DHT22;6785;57.918;12.530;2022-11-20T05:07:20;-0.90;99.90
13426;DHT22;6785;57.918;12.530;2022-11-20T05:09:47;-0.90;99.90
13426;DHT22;6785;57.918;12.530;2022-11-20T05:12:14;-0.90;99.90
13426;DHT22;6785;57.918;12.530;2022-11-20T05:14:40;-0.80;99.90
13426;DHT22;6785;57.918;12.530;2022-11-20T05:17:11;-0.90;99.90
13426;DHT22;6785;57.918;12.530;2022-11-20T05:19:38;-0.90;99.90
13426;DHT22;6785;57.918;12.530;2022-11-20T05:22:04;-0.90;99.90
13426;DHT22;6785;57.918;12.530;2022-11-20T05:24:31;-0.80;99.90
13426;DHT22;6785;57.918;12.530;2022-11-20T05:26:58;-0.80;99.90
13426;DHT22;6785;57.918;12.530;2022-11-20T05:29:25;-0.80;99.90
13426;DHT22;6785;57.918;12.530;2022-11-20T05:31:52;-0.80;99.90
13426;DHT22;6785;57.918;12.530;2022-11-20T05:34:20;-0.80;99.90
13426;DHT22;6785;57.918;12.530;2022-11-20T05:36:46;-0.80;99.90
13426;DHT22;6785;57.918;12.530;2022-11-20T05:39:13;-0.80;99.90
13426;DHT22;6785;57.918;12.530;2022-11-20T05:41:40;-0.80;99.90
13426;DHT22;6785;57.918;12.530;2022-11-20T05:44:09;-0.80;99.90
13426;DHT22;6785;57.918;12.530;2022-11-20T05:46:36;-0.80;99.90
13426;DHT22;6785;57.918;12.530;2022-11-20T05:49:03;-0.70;99.90
13426;DHT22;6785;57.918;12.530;2022-11-20T05:51:31;-0.70;99.90
13426;DHT22;6785;57.918;12.530;2022-11-20T05:53:58;-0.80;99.90
13426;DHT22;6785;57.918;12.530;2022-11-20T05:56:25;-0.70;99.90
13426;DHT22;6785;57.918;12.530;2022-11-20T05:58:52;-0.70;99.90
13426;DHT22;6785;57.918;12.530;2022-11-20T06:01:21;-0.70;99.90
13426;DHT22;6785;57.918;12.530;2022-11-20T06:03:48;-0.70;99.90
13426;DHT22;6785;57.918;12.530;2022-11-20T06:06:16;-0.70;99.90
13426;DHT22;6785;57.918;12.530;2022-11-20T06:08:45;-0.70;99.90
13426;DHT22;6785;57.918;12.530;2022-11-20T06:11:13;-0.70;99.90
13426;DHT22;6785;57.918;12.530;2022-11-20T06:13:40;-0.70;99.90
13426;DHT22;6785;57.918;12.530;2022-11-20T06:16:07;-0.70;99.90
13426;DHT22;6785;57.918;12.530;2022-11-20T06:18:35;-0.70;99.90
13426;DHT22;6785;57.918;12.530;2022-11-20T06:21:04;-0.60;99.90
13426;DHT22;6785;57.918;12.530;2022-11-20T06:23:31;-0.60;99.90
13426;DHT22;6785;57.918;12.530;2022-11-20T06:26:02;-0.70;99.90
13426;DHT22;6785;57.918;12.530;2022-11-20T06:28:30;-0.60;99.90
13426;DHT22;6785;57.918;12.530;2022-11-20T06:31:01;-0.60;99.90
13426;DHT22;6785;57.918;12.530;2022-11-20T06:33:28;-0.60;99.90
13426;DHT22;6785;57.918;12.530;2022-11-20T06:35:56;-0.60;99.90
13426;DHT22;6785;57.918;12.530;2022-11-20T06:38:23;-0.50;99.90
13426;DHT22;6785;57.918;12.530;2022-11-20T06:40:50;-0.60;99.90
13426;DHT22;6785;57.918;12.530;2022-11-20T06:43:18;-0.50;99.90
13426;DHT22;6785;57.918;12.530;2022-11-20T06:45:45;-0.50;99.90
13426;DHT22;6785;57.918;12.530;2022-11-20T06:48:12;-0.50;99.90
13426;DHT22;6785;57.918;12.530;2022-11-20T06:50:39;-0.60;99.90
13426;DHT22;6785;57.918;12.530;2022-11-20T06:53:06;-0.60;99.90
13426;DHT22;6785;57.918;12.530;2022-11-20T06:55:32;-0.50;99.90
13426;DHT22;6785;57.918;12.530;2022-11-20T06:57:59;-0.50;99.90
13426;DHT22;6785;57.918;12.530;2022-11-20T07:00:27;-0.50;99.90
13426;DHT22;6785;57.918;12.530;2022-11-20T07:02:54;-0.50;99.90
13426;DHT22;6785;57.918;12.530;2022-11-20T07:05:22;-0.40;99.90
13426;DHT22;6785;57.918;12.530;2022-11-20T07:07:49;-0.40;99.90
13426;DHT22;6785;57.918;12.530;2022-11-20T07:10:16;-0.40;99.90
13426;DHT22;6785;57.918;12.530;2022-11-20T07:12:48;-0.30;99.90
13426;DHT22;6785;57.918;12.530;2022-11-20T07:15:18;-0.30;99.90
13426;DHT22;6785;57.918;12.530;2022-11-20T07:17:46;-0.40;99.90
13426;DHT22;6785;57.918;12.530;2022-11-20T07:20:13;-0.30;99.90
13426;DHT22;6785;57.918;12.530;2022-11-20T07:22:40;-0.30;99.90
13426;DHT22;6785;57.918;12.530;2022-11-20T07:25:08;-0.30;99.90
13426;DHT22;6785;57.918;12.530;2022-11-20T07:27:35;-0.30;99.90
13426;DHT22;6785;57.918;12.530;2022-11-20T07:30:03;-0.20;99.90
13426;DHT22;6785;57.918;12.530;2022-11-20T07:32:30;-0.20;99.90
13426;DHT22;6785;57.918;12.530;2022-11-20T07:34:58;-0.20;99.90
13426;DHT22;6785;57.918;12.530;2022-11-20T07:37:26;-0.20;99.90
13426;DHT22;6785;57.918;12.530;2022-11-20T07:39:53;-0.20;99.90
13426;DHT22;6785;57.918;12.530;2022-11-20T07:42:20;-0.20;99.90
13426;DHT22;6785;57.918;12.530;2022-11-20T07:44:47;-0.20;99.90
13426;DHT22;6785;57.918;12.530;2022-11-20T07:47:13;-0.20;99.90
13426;DHT22;6785;57.918;12.530;2022-11-20T07:49:40;-0.10;99.90
13426;DHT22;6785;57.918;12.530;2022-11-20T07:52:08;-0.10;99.90
13426;DHT22;6785;57.918;12.530;2022-11-20T07:54:35;-0.10;99.90
13426;DHT22;6785;57.918;12.530;2022-11-20T07:57:02;-0.10;99.90
13426;DHT22;6785;57.918;12.530;2022-11-20T07:59:29;-0.10;99.90
13426;DHT22;6785;57.918;12.530;2022-11-20T08:01:56;-0.10;99.90
13426;DHT22;6785;57.918;12.530;2022-11-20T08:04:22;-0.10;99.90
13426;DHT22;6785;57.918;12.530;2022-11-20T08:06:51;-0.10;99.90
13426;DHT22;6785;57.918;12.530;2022-11-20T08:09:20;0.00;99.90
13426;DHT22;6785;57.918;12.530;2022-11-20T08:11:46;0.00;99.90
13426;DHT22;6785;57.918;12.530;2022-11-20T08:14:31;0.00;99.90
13426;DHT22;6785;57.918;12.530;2022-11-20T08:16:58;0.00;99.90
13426;DHT22;6785;57.918;12.530;2022-11-20T08:19:25;0.00;99.90
13426;DHT22;6785;57.918;12.530;2022-11-20T08:21:51;0.00;99.90
13426;DHT22;6785;57.918;12.530;2022-11-20T08:24:20;0.00;99.90
13426;DHT22;6785;57.918;12.530;2022-11-20T08:26:46;0.10;99.90
13426;DHT22;6785;57.918;12.530;2022-11-20T08:29:13;0.10;99.90
13426;DHT22;6785;57.918;12.530;2022-11-20T08:31:40;0.10;99.90
13426;DHT22;6785;57.918;12.530;2022-11-20T08:34:08;0.10;99.90
13426;DHT22;6785;57.918;12.530;2022-11-20T08:36:35;0.10;99.90
13426;DHT22;6785;57.918;12.530;2022-11-20T08:39:03;0.20;99.90
13426;DHT22;6785;57.918;12.530;2022-11-20T08:41:31;0.10;99.90
13426;DHT22;6785;57.918;12.530;2022-11-20T08:43:59;0.20;99.90
13426;DHT22;6785;57.918;12.530;2022-11-20T08:46:32;0.20;99.90
13426;DHT22;6785;57.918;12.530;2022-11-20T08:48:59;0.20;99.90
13426;DHT22;6785;57.918;12.530;2022-11-20T08:51:26;0.20;99.90
13426;DHT22;6785;57.918;12.530;2022-11-20T08:53:53;0.10;99.90
13426;DHT22;6785;57.918;12.530;2022-11-20T08:56:20;0.20;99.90
13426;DHT22;6785;57.918;12.530;2022-11-20T08:58:49;0.20;99.90
13426;DHT22;6785;57.918;12.530;2022-11-20T09:01:16;0.30;99.90
13426;DHT22;6785;57.918;12.530;2022-11-20T09:03:43;0.30;99.90
13426;DHT22;6785;57.918;12.530;2022-11-20T09:06:11;0.30;99.90
13426;DHT22;6785;57.918;12.530;2022-11-20T09:08:38;0.30;99.90
13426;DHT22;6785;57.918;12.530;2022-11-20T09:11:06;0.40;99.90
13426;DHT22;6785;57.918;12.530;2022-11-20T09:13:34;0.40;99.90
13426;DHT22;6785;57.918;12.530;2022-11-20T09:16:05;0.30;99.90
13426;DHT22;6785;57.918;12.530;2022-11-20T09:18:33;0.40;99.90
13426;DHT22;6785;57.918;12.530;2022-11-20T09:21:03;0.40;99.90
13426;DHT22;6785;57.918;12.530;2022-11-20T09:23:32;0.40;99.90
13426;DHT22;6785;57.918;12.530;2022-11-20T09:26:02;0.40;99.90
13426;DHT22;6785;57.918;12.530;2022-11-20T09:28:34;0.40;99.90
13426;DHT22;6785;57.918;12.530;2022-11-20T09:31:04;0.40;99.90
13426;DHT22;6785;57.918;12.530;2022-11-20T09:33:31;0.40;99.90
13426;DHT22;6785;57.918;12.530;2022-11-20T09:36:00;0.40;99.90
13426;DHT22;6785;57.918;12.530;2022-11-20T09:38:27;0.40;99.90
13426;DHT22;6785;57.918;12.530;2022-11-20T09:40:57;0.50;99.90
13426;DHT22;6785;57.918;12.530;2022-11-20T09:43:49;0.60;99.90
13426;DHT22;6785;57.918;12.530;2022-11-20T09:46:26;0.60;99.90
13426;DHT22;6785;57.918;12.530;2022-11-20T09:49:11;0.60;99.90
13426;DHT22;6785;57.918;12.530;2022-11-20T09:51:51;0.70;99.90
13426;DHT22;6785;57.918;12.530;2022-11-20T09:54:22;0.70;99.90
13426;DHT22;6785;57.918;12.530;2022-11-20T09:56:55;0.60;99.90
13426;DHT22;6785;57.918;12.530;2022-11-20T09:59:32;0.70;99.90
13426;DHT22;6785;57.918;12.530;2022-11-20T10:02:05;0.70;99.90
13426;DHT22;6785;57.918;12.530;2022-11-20T10:04:45;0.70;99.90
13426;DHT22;6785;57.918;12.530;2022-11-20T10:07:16;0.70;99.90
13426;DHT22;6785;57.918;12.530;2022-11-20T10:09:52;0.80;99.90
13426;DHT22;6785;57.918;12.530;2022-11-20T10:12:27;0.90;99.90
13426;DHT22;6785;57.918;12.530;2022-11-20T10:15:07;0.90;99.90
13426;DHT22;6785;57.918;12.530;2022-11-20T10:17:59;1.00;99.90
13426;DHT22;6785;57.918;12.530;2022-11-20T10:20:41;1.00;99.90
13426;DHT22;6785;57.918;12.530;2022-11-20T10:23:27;1.10;99.90
13426;DHT22;6785;57.918;12.530;2022-11-20T10:26:01;1.10;99.90
13426;DHT22;6785;57.918;12.530;2022-11-20T10:28:38;1.10;99.90
13426;DHT22;6785;57.918;12.530;2022-11-20T10:31:12;1.10;99.90
13426;DHT22;6785;57.918;12.530;2022-11-20T10:33:45;1.10;99.90
13426;DHT22;6785;57.918;12.530;2022-11-20T10:36:16;1.10;99.90
13426;DHT22;6785;57.918;12.530;2022-11-20T10:38:47;1.10;99.90
13426;DHT22;6785;57.918;12.530;2022-11-20T10:41:21;1.10;99.90
13426;DHT22;6785;57.918;12.530;2022-11-20T10:43:59;1.10;99.90
13426;DHT22;6785;57.918;12.530;2022-11-20T10:46:33;1.10;99.90
13426;DHT22;6785;57.918;12.530;2022-11-20T10:49:05;1.10;99.90
13426;DHT22;6785;57.918;12.530;2022-11-20T10:51:51;1.10;99.90
13426;DHT22;6785;57.918;12.530;2022-11-20T10:54:32;1.10;99.90
13426;DHT22;6785;57.918;12.530;2022-11-20T10:57:04;1.10;99.90
13426;DHT22;6785;57.918;12.530;2022-11-20T10:59:41;1.10;99.90
13426;DHT22;6785;57.918;12.530;2022-11-20T11:02:19;1.20;99.90
13426;DHT22;6785;57.918;12.530;2022-11-20T11:04:49;1.20;99.90
13426;DHT22;6785;57.918;12.530;2022-11-20T11:07:22;1.20;99.90
13426;DHT22;6785;57.918;12.530;2022-11-20T11:09:53;1.30;99.90
13426;DHT22;6785;57.918;12.530;2022-11-20T11:12:21;1.30;99.90
13426;DHT22;6785;57.918;12.530;2022-11-20T11:14:50;1.30;99.90
13426;DHT22;6785;57.918;12.530;2022-11-20T11:17:27;1.30;99.90
13426;DHT22;6785;57.918;12.530;2022-11-20T11:20:06;1.30;99.90
13426;DHT22;6785;57.918;12.530;2022-11-20T11:22:34;1.30;99.90
13426;DHT22;6785;57.918;12.530;2022-11-20T11:25:02;1.20;99.90
13426;DHT22;6785;57.918;12.530;2022-11-20T11:27:28;1.20;99.90
13426;DHT22;6785;57.918;12.530;2022-11-20T11:30:12;1.20;99.90
13426;DHT22;6785;57.918;12.530;2022-11-20T11:32:40;1.20;99.90
13426;DHT22;6785;57.918;12.530;2022-11-20T11:35:21;1.20;99.90
13426;DHT22;6785;57.918;12.530;2022-11-20T11:37:48;1.20;99.90
13426;DHT22;6785;57.918;12.530;2022-11-20T11:40:17;1.20;99.90
13426;DHT22;6785;57.918;12.530;2022-11-20T11:42:52;1.20;99.90
13426;DHT22;6785;57.918;12.530;2022-11-20T11:45:21;1.20;99.90
13426;DHT22;6785;57.918;12.530;2022-11-20T11:47:48;1.10;99.90
13426;DHT22;6785;57.918;12.530;2022-11-20T11:50:19;1.10;99.90
13426;DHT22;6785;57.918;12.530;2022-11-20T11:52:53;1.10;99.90
13426;DHT22;6785;57.918;12.530;2022-11-20T11:55:28;1.20;99.90
13426;DHT22;6785;57.918;12.530;2022-11-20T11:58:04;1.10;99.90
13426;DHT22;6785;57.918;12.530;2022-11-20T12:00:34;1.20;99.90
13426;DHT22;6785;57.918;12.530;2022-11-20T12:03:07;1.20;99.90
13426;DHT22;6785;57.918;12.530;2022-11-20T12:05:40;1.20;99.90
13426;DHT22;6785;57.918;12.530;2022-11-20T12:08:15;1.20;99.90
13426;DHT22;6785;57.918;12.530;2022-11-20T12:10:47;1.30;99.90
13426;DHT22;6785;57.918;12.530;2022-11-20T12:13:25;1.30;99.90
13426;DHT22;6785;57.918;12.530;2022-11-20T12:15:53;1.30;99.90
13426;DHT22;6785;57.918;12.530;2022-11-20T12:18:22;1.30;99.90
13426;DHT22;6785;57.918;12.530;2022-11-20T12:21:02;1.30;99.90
13426;DHT22;6785;57.918;12.530;2022-11-20T12:23:39;1.30;99.90
13426;DHT22;6785;57.918;12.530;2022-11-20T12:26:16;1.30;99.90
13426;DHT22;6785;57.918;12.530;2022-11-20T12:28:56;1.30;99.90
13426;DHT22;6785;57.918;12.530;2022-11-20T12:34:41;1.40;99.90
13426;DHT22;6785;57.918;12.530;2022-11-20T12:37:18;1.50;99.90
13426;DHT22;6785;57.918;12.530;2022-11-20T12:39:48;1.40;99.90
13426;DHT22;6785;57.918;12.530;2022-11-20T12:42:29;1.40;99.90
13426;DHT22;6785;57.918;12.530;2022-11-20T12:45:35;1.40;99.90
13426;DHT22;6785;57.918;12.530;2022-11-20T12:48:36;1.40;99.90
13426;DHT22;6785;57.918;12.530;2022-11-20T12:51:34;1.30;99.90
13426;DHT22;6785;57.918;12.530;2022-11-20T12:54:30;1.40;99.90
13426;DHT22;6785;57.918;12.530;2022-11-20T12:57:09;1.40;99.90
13426;DHT22;6785;57.918;12.530;2022-11-20T12:59:54;1.30;99.90
13426;DHT22;6785;57.918;12.530;2022-11-20T13:02:27;1.30;99.90
13426;DHT22;6785;57.918;12.530;2022-11-20T13:05:06;1.30;99.90
13426;DHT22;6785;57.918;12.530;2022-11-20T13:07:36;1.20;99.90
13426;DHT22;6785;57.918;12.530;2022-11-20T13:10:05;1.20;99.90
13426;DHT22;6785;57.918;12.530;2022-11-20T13:12:44;1.20;99.90
13426;DHT22;6785;57.918;12.530;2022-11-20T13:15:22;1.20;99.90
13426;DHT22;6785;57.918;12.530;2022-11-20T13:17:55;1.20;99.90
13426;DHT22;6785;57.918;12.530;2022-11-20T13:20:24;1.20;99.90
13426;DHT22;6785;57.918;12.530;2022-11-20T13:22:53;1.20;99.90
13426;DHT22;6785;57.918;12.530;2022-11-20T13:25:24;1.20;99.90
13426;DHT22;6785;57.918;12.530;2022-11-20T13:27:53;1.10;99.90
13426;DHT22;6785;57.918;12.530;2022-11-20T13:30:21;1.10;99.90
13426;DHT22;6785;57.918;12.530;2022-11-20T13:32:52;1.10;99.90
13426;DHT22;6785;57.918;12.530;2022-11-20T13:35:35;1.10;99.90
13426;DHT22;6785;57.918;12.530;2022-11-20T13:38:05;1.10;99.90
13426;DHT22;6785;57.918;12.530;2022-11-20T13:40:34;1.10;99.90
13426;DHT22;6785;57.918;12.530;2022-11-20T13:43:11;1.10;99.90
13426;DHT22;6785;57.918;12.530;2022-11-20T13:45:41;1.10;99.90
13426;DHT22;6785;57.918;12.530;2022-11-20T13:48:24;1.10;99.90
13426;DHT22;6785;57.918;12.530;2022-11-20T13:51:02;1.10;99.90
13426;DHT22;6785;57.918;12.530;2022-11-20T13:53:48;1.00;99.90
13426;DHT22;6785;57.918;12.530;2022-11-20T13:56:27;1.00;99.90
13426;DHT22;6785;57.918;12.530;2022-11-20T13:59:02;1.00;99.90
13426;DHT22;6785;57.918;12.530;2022-11-20T14:01:32;1.00;99.90
13426;DHT22;6785;57.918;12.530;2022-11-20T14:04:06;0.90;99.90
13426;DHT22;6785;57.918;12.530;2022-11-20T14:06:40;0.90;99.90
13426;DHT22;6785;57.918;12.530;2022-11-20T14:09:24;0.90;99.90
13426;DHT22;6785;57.918;12.530;2022-11-20T14:11:53;0.80;99.90
13426;DHT22;6785;57.918;12.530;2022-11-20T14:14:21;0.90;99.90
13426;DHT22;6785;57.918;12.530;2022-11-20T14:16:49;0.90;99.90
13426;DHT22;6785;57.918;12.530;2022-11-20T14:19:28;0.80;99.90
13426;DHT22;6785;57.918;12.530;2022-11-20T14:22:09;0.80;99.90
13426;DHT22;6785;57.918;12.530;2022-11-20T14:24:40;0.80;99.90
13426;DHT22;6785;57.918;12.530;2022-11-20T14:27:14;0.80;99.90
13426;DHT22;6785;57.918;12.530;2022-11-20T14:29:42;0.80;99.90
13426;DHT22;6785;57.918;12.530;2022-11-20T14:32:09;0.80;99.90
13426;DHT22;6785;57.918;12.530;2022-11-20T14:34:39;0.70;99.90
13426;DHT22;6785;57.918;12.530;2022-11-20T14:37:11;0.70;99.90
13426;DHT22;6785;57.918;12.530;2022-11-20T14:39:41;0.70;99.90
13426;DHT22;6785;57.918;12.530;2022-11-20T14:42:17;0.70;99.90
13426;DHT22;6785;57.918;12.530;2022-11-20T14:44:44;0.70;99.90
13426;DHT22;6785;57.918;12.530;2022-11-20T14:47:13;0.60;99.90
13426;DHT22;6785;57.918;12.530;2022-11-20T14:49:41;0.60;99.90
13426;DHT22;6785;57.918;12.530;2022-11-20T14:52:14;0.60;99.90
13426;DHT22;6785;57.918;12.530;2022-11-20T14:54:45;0.60;99.90
13426;DHT22;6785;57.918;12.530;2022-11-20T14:57:26;0.60;99.90
13426;DHT22;6785;57.918;12.530;2022-11-20T15:00:05;0.70;99.90
13426;DHT22;6785;57.918;12.530;2022-11-20T15:02:34;0.70;99.90
13426;DHT22;6785;57.918;12.530;2022-11-20T15:05:01;0.60;99.90
13426;DHT22;6785;57.918;12.530;2022-11-20T15:07:30;0.60;99.90
13426;DHT22;6785;57.918;12.530;2022-11-20T15:10:01;0.60;99.90
13426;DHT22;6785;57.918;12.530;2022-11-20T15:12:30;0.60;99.90
13426;DHT22;6785;57.918;12.530;2022-11-20T15:14:58;0.60;99.90
13426;DHT22;6785;57.918;12.530;2022-11-20T15:17:25;0.60;99.90
13426;DHT22;6785;57.918;12.530;2022-11-20T15:19:52;0.70;99.90
13426;DHT22;6785;57.918;12.530;2022-11-20T15:22:19;0.60;99.90
13426;DHT22;6785;57.918;12.530;2022-11-20T15:24:46;0.60;99.90
13426;DHT22;6785;57.918;12.530;2022-11-20T15:27:13;0.60;99.90
13426;DHT22;6785;57.918;12.530;2022-11-20T15:29:44;0.50;99.90
13426;DHT22;6785;57.918;12.530;2022-11-20T15:32:11;0.60;99.90
13426;DHT22;6785;57.918;12.530;2022-11-20T15:34:38;0.60;99.90
13426;DHT22;6785;57.918;12.530;2022-11-20T15:37:05;0.60;99.90
13426;DHT22;6785;57.918;12.530;2022-11-20T15:39:31;0.60;99.90
13426;DHT22;6785;57.918;12.530;2022-11-20T15:41:58;0.50;99.90
13426;DHT22;6785;57.918;12.530;2022-11-20T15:44:25;0.60;99.90
13426;DHT22;6785;57.918;12.530;2022-11-20T15:46:53;0.60;99.90
13426;DHT22;6785;57.918;12.530;2022-11-20T15:49:20;0.60;99.90
13426;DHT22;6785;57.918;12.530;2022-11-20T15:51:49;0.60;99.90
13426;DHT22;6785;57.918;12.530;2022-11-20T15:54:19;0.60;99.90
13426;DHT22;6785;57.918;12.530;2022-11-20T15:56:46;0.60;99.90
13426;DHT22;6785;57.918;12.530;2022-11-20T15:59:13;0.60;99.90